createdAt,value
2023-02-27T00:00:35.829Z,7.07
2023-02-27T00:03:03.554Z,8.75
2023-02-27T00:05:31.513Z,7.97
2023-02-27T00:07:59.202Z,5.85
2023-02-27T00:10:26.926Z,6.75
2023-02-27T00:12:57.104Z,8.88
2023-02-27T00:15:24.846Z,5.68
2023-02-27T00:17:52.769Z,5.50
2023-02-27T00:20:25.280Z,7.72
2023-02-27T00:22:53.029Z,6.90
2023-02-27T00:25:20.829Z,5.85
2023-02-27T00:27:48.601Z,5.97
2023-02-27T00:30:18.093Z,7.63
2023-02-27T00:32:45.835Z,8.10
2023-02-27T00:35:13.877Z,9.52
2023-02-27T00:37:41.802Z,4.57
2023-02-27T00:40:11.463Z,4.75
2023-02-27T00:42:39.278Z,5.93
2023-02-27T00:45:10.074Z,6.78
2023-02-27T00:47:39.304Z,5.28
2023-02-27T00:50:07.540Z,11.30
2023-02-27T00:52:35.354Z,5.97
2023-02-27T00:55:03.086Z,11.05
2023-02-27T00:57:30.960Z,6.30
2023-02-27T00:59:58.768Z,6.07
2023-02-27T01:02:26.530Z,7.53
2023-02-27T01:04:58.154Z,7.60
2023-02-27T01:07:25.858Z,8.38
2023-02-27T01:09:54.658Z,9.00
2023-02-27T01:12:22.417Z,10.65
2023-02-27T01:14:50.260Z,8.80
2023-02-27T01:17:18.590Z,6.95
2023-02-27T01:19:46.328Z,6.82
2023-02-27T01:22:15.446Z,7.85
2023-02-27T01:24:43.456Z,7.13
2023-02-27T01:27:11.193Z,6.65
2023-02-27T01:29:39.180Z,7.15
2023-02-27T01:32:07.038Z,9.52
2023-02-27T01:34:35.031Z,8.38
2023-02-27T01:37:03.405Z,4.82
2023-02-27T01:39:33.435Z,9.50
2023-02-27T01:42:01.624Z,8.70
2023-02-27T01:44:31.417Z,7.57
2023-02-27T01:46:59.167Z,6.93
2023-02-27T01:49:31.553Z,7.78
2023-02-27T01:52:05.700Z,4.60
2023-02-27T01:54:40.285Z,3.53
2023-02-27T01:57:08.916Z,4.85
2023-02-27T01:59:39.619Z,4.93
2023-02-27T02:02:14.679Z,7.15
2023-02-27T02:04:43.251Z,6.80
2023-02-27T02:07:18.026Z,6.22
2023-02-27T02:09:50.969Z,6.00
2023-02-27T02:12:22.190Z,6.68
2023-02-27T02:14:49.938Z,5.82
2023-02-27T02:17:22.572Z,6.55
2023-02-27T02:20:28.414Z,7.13
2023-02-27T02:23:35.289Z,11.30
2023-02-27T02:26:29.252Z,5.65
2023-02-27T02:29:35.629Z,5.22
2023-02-27T02:32:39.615Z,5.95
2023-02-27T02:35:35.910Z,6.97
2023-02-27T02:38:57.691Z,7.88
2023-02-27T02:41:39.299Z,7.88
2023-02-27T02:44:19.428Z,6.05
2023-02-27T02:46:50.762Z,7.35
2023-02-27T02:49:27.599Z,7.25
2023-02-27T02:52:04.209Z,5.97
2023-02-27T02:54:41.926Z,8.18
2023-02-27T02:57:14.820Z,6.13
2023-02-27T02:59:49.416Z,8.18
2023-02-27T03:02:22.398Z,8.30
2023-02-27T03:04:54.533Z,5.85
2023-02-27T03:07:28.298Z,8.52
2023-02-27T03:10:05.069Z,6.47
2023-02-27T03:12:34.651Z,7.77
2023-02-27T03:15:07.639Z,7.25
2023-02-27T03:17:46.677Z,7.68
2023-02-27T03:20:20.203Z,7.50
2023-02-27T03:22:54.074Z,5.70
2023-02-27T03:25:26.410Z,6.32
2023-02-27T03:27:58.441Z,8.10
2023-02-27T03:30:32.019Z,7.35
2023-02-27T03:33:06.176Z,6.82
2023-02-27T03:35:43.170Z,9.15
2023-02-27T03:40:53.716Z,5.55
2023-02-27T03:43:32.008Z,7.82
2023-02-27T03:46:05.488Z,5.60
2023-02-27T03:48:34.649Z,6.28
2023-02-27T03:51:02.523Z,8.13
2023-02-27T03:53:35.985Z,8.00
2023-02-27T03:56:08.875Z,5.85
2023-02-27T03:58:37.257Z,6.25
2023-02-27T04:01:05.230Z,4.88
2023-02-27T04:03:37.117Z,5.63
2023-02-27T04:06:26.435Z,7.35
2023-02-27T04:09:06.403Z,4.95
2023-02-27T04:11:54.603Z,5.60
2023-02-27T04:14:41.212Z,9.65
2023-02-27T04:17:23.963Z,7.82
2023-02-27T04:20:18.167Z,8.48
2023-02-27T04:22:50.361Z,5.85
2023-02-27T04:25:27.810Z,7.63
2023-02-27T04:28:03.800Z,6.47
2023-02-27T04:30:42.039Z,5.95
2023-02-27T04:33:15.265Z,10.32
2023-02-27T04:35:51.192Z,3.83
2023-02-27T04:38:23.954Z,4.43
2023-02-27T04:40:56.147Z,6.35
2023-02-27T04:43:27.585Z,6.50
2023-02-27T04:45:57.687Z,6.75
2023-02-27T04:48:27.409Z,6.75
2023-02-27T04:50:59.934Z,5.32
2023-02-27T04:53:31.450Z,8.07
2023-02-27T04:56:05.762Z,8.18
2023-02-27T04:58:37.528Z,5.53
2023-02-27T05:01:12.626Z,7.03
2023-02-27T05:03:44.370Z,5.75
2023-02-27T05:06:13.390Z,5.32
2023-02-27T05:08:46.058Z,8.88
2023-02-27T05:11:21.433Z,6.75
2023-02-27T05:13:54.909Z,5.20
2023-02-27T05:16:27.978Z,6.78
2023-02-27T05:18:57.466Z,9.73
2023-02-27T05:21:30.320Z,6.75
2023-02-27T05:24:10.552Z,8.13
2023-02-27T05:26:57.566Z,6.95
2023-02-27T05:29:34.854Z,8.88
2023-02-27T05:32:08.306Z,6.65
2023-02-27T05:34:43.384Z,8.38
2023-02-27T05:37:15.998Z,12.68
2023-02-27T05:39:47.317Z,7.50
2023-02-27T05:42:20.501Z,10.35
2023-02-27T05:44:57.328Z,7.10
2023-02-27T05:47:30.002Z,7.82
2023-02-27T05:50:02.569Z,7.55
2023-02-27T05:52:31.944Z,13.07
2023-02-27T05:55:05.372Z,7.25
2023-02-27T05:57:40.181Z,8.57
2023-02-27T06:00:14.730Z,7.15
2023-02-27T06:02:44.879Z,8.68
2023-02-27T06:05:16.027Z,8.00
2023-02-27T06:07:43.827Z,9.27
2023-02-27T06:10:15.231Z,10.75
2023-02-27T06:12:43.230Z,9.65
2023-02-27T06:15:13.340Z,12.50
2023-02-27T06:17:41.259Z,12.80
2023-02-27T06:20:10.371Z,10.50
2023-02-27T06:22:38.215Z,9.52
2023-02-27T06:25:06.602Z,9.13
2023-02-27T06:27:34.296Z,12.27
2023-02-27T06:30:02.097Z,12.38
2023-02-27T06:32:31.194Z,10.43
2023-02-27T06:34:58.934Z,12.60
2023-02-27T06:37:26.889Z,13.48
2023-02-27T06:39:54.574Z,7.95
2023-02-27T06:42:22.504Z,8.38
2023-02-27T06:44:50.216Z,10.93
2023-02-27T06:47:18.223Z,12.48
2023-02-27T06:49:47.267Z,9.18
2023-02-27T06:52:14.939Z,10.93
2023-02-27T06:54:42.688Z,7.05
2023-02-27T06:57:10.406Z,8.40
2023-02-27T06:59:38.172Z,9.75
2023-02-27T07:02:05.888Z,13.10
2023-02-27T07:04:34.104Z,8.48
2023-02-27T07:07:35.189Z,13.23
2023-02-27T07:09:50.929Z,13.82
2023-02-27T07:12:18.751Z,13.95
2023-02-27T07:14:46.438Z,11.93
2023-02-27T07:17:14.223Z,11.52
2023-02-27T07:19:41.938Z,13.93
2023-02-27T07:22:11.018Z,16.27
2023-02-27T07:24:38.793Z,10.07
2023-02-27T07:27:06.593Z,10.75
2023-02-27T07:29:35.942Z,10.75
2023-02-27T07:32:04.068Z,11.40
2023-02-27T07:34:31.845Z,10.43
2023-02-27T07:36:59.558Z,13.73
2023-02-27T07:39:28.730Z,10.65
2023-02-27T07:41:56.603Z,14.05
2023-02-27T07:44:24.272Z,16.15
2023-02-27T07:46:52.075Z,12.15
2023-02-27T07:49:19.885Z,10.18
2023-02-27T07:51:47.627Z,13.90
2023-02-27T07:54:15.408Z,9.77
2023-02-27T07:56:44.453Z,11.77
2023-02-27T07:59:12.532Z,11.82
2023-02-27T08:01:40.243Z,12.07
2023-02-27T08:04:08.010Z,9.68
2023-02-27T08:06:36.057Z,10.63
2023-02-27T08:09:04.048Z,13.27
2023-02-27T08:11:31.840Z,12.98
2023-02-27T08:14:02.090Z,11.23
2023-02-27T08:16:31.006Z,12.52
2023-02-27T08:18:59.142Z,15.68
2023-02-27T08:21:27.552Z,11.98
2023-02-27T08:23:55.602Z,9.45
2023-02-27T08:26:23.323Z,11.68
2023-02-27T08:28:51.086Z,10.93
2023-02-27T08:31:20.311Z,9.40
2023-02-27T08:33:49.601Z,8.93
2023-02-27T08:36:20.872Z,8.13
2023-02-27T08:38:48.545Z,8.20
2023-02-27T08:41:16.389Z,7.32
2023-02-27T08:43:44.093Z,8.10
2023-02-27T08:46:11.966Z,7.63
2023-02-27T08:48:42.628Z,20.13
2023-02-27T08:51:11.066Z,10.57
2023-02-27T08:53:38.930Z,10.50
2023-02-27T08:56:07.319Z,9.02
2023-02-27T08:58:35.804Z,12.25
2023-02-27T09:01:03.897Z,7.60
2023-02-27T09:03:31.619Z,8.65
2023-02-27T09:06:00.834Z,10.45
2023-02-27T09:08:28.495Z,7.57
2023-02-27T09:10:57.872Z,10.40
2023-02-27T09:13:26.726Z,6.85
2023-02-27T09:15:54.770Z,11.60
2023-02-27T09:18:22.724Z,6.32
2023-02-27T09:20:52.007Z,6.50
2023-02-27T09:23:21.339Z,9.85
2023-02-27T09:25:49.069Z,6.10
2023-02-27T09:28:16.856Z,10.45
2023-02-27T09:30:44.642Z,12.10
2023-02-27T09:33:12.435Z,8.48
2023-02-27T09:35:40.255Z,9.55
2023-02-27T09:38:08.259Z,7.82
2023-02-27T09:40:41.843Z,7.38
2023-02-27T09:43:16.854Z,6.90
2023-02-27T09:45:45.160Z,10.43
2023-02-27T09:48:29.898Z,6.93
2023-02-27T09:50:59.116Z,5.90
2023-02-27T09:53:31.194Z,7.78
2023-02-27T09:56:06.377Z,6.32
2023-02-27T09:58:45.692Z,10.32
2023-02-27T10:01:17.589Z,6.05
2023-02-27T10:04:21.063Z,10.07
2023-02-27T10:06:53.083Z,7.45
2023-02-27T10:09:35.970Z,6.82
2023-02-27T10:12:16.173Z,6.30
2023-02-27T10:14:48.650Z,7.13
2023-02-27T10:17:22.371Z,8.25
2023-02-27T10:19:52.317Z,7.55
2023-02-27T10:22:26.096Z,11.57
2023-02-27T10:24:58.765Z,5.82
2023-02-27T10:27:27.873Z,9.20
2023-02-27T10:30:01.874Z,8.30
2023-02-27T10:32:33.388Z,7.20
2023-02-27T10:35:09.559Z,14.40
2023-02-27T10:37:39.590Z,6.88
2023-02-27T10:40:08.404Z,5.22
2023-02-27T10:42:41.589Z,5.95
2023-02-27T10:45:14.834Z,5.90
2023-02-27T10:47:43.497Z,6.75
2023-02-27T10:50:22.282Z,8.70
2023-02-27T10:52:51.387Z,5.30
2023-02-27T10:55:24.109Z,5.78
2023-02-27T10:57:55.766Z,4.50
2023-02-27T11:00:33.491Z,6.20
2023-02-27T11:03:01.580Z,6.93
2023-02-27T11:05:32.097Z,6.95
2023-02-27T11:08:14.209Z,3.65
2023-02-27T11:10:58.805Z,3.58
2023-02-27T11:13:30.307Z,5.90
2023-02-27T11:16:13.533Z,5.25
2023-02-27T11:18:43.443Z,3.63
2023-02-27T11:21:15.067Z,4.18
2023-02-27T11:23:53.124Z,5.47
2023-02-27T11:26:24.864Z,5.40
2023-02-27T11:29:15.331Z,5.63
2023-02-27T11:31:48.866Z,5.50
2023-02-27T11:34:24.881Z,7.82
2023-02-27T11:36:55.492Z,3.90
2023-02-27T11:39:27.235Z,2.90
2023-02-27T11:41:57.611Z,5.43
2023-02-27T11:44:49.855Z,2.28
2023-02-27T11:47:24.279Z,6.38
2023-02-27T11:50:29.573Z,3.10
2023-02-27T11:53:13.301Z,3.25
2023-02-27T11:55:41.718Z,4.72
2023-02-27T11:58:14.582Z,6.18
2023-02-27T12:00:48.068Z,3.15
2023-02-27T12:03:23.744Z,2.75
2023-02-27T12:05:55.504Z,3.22
2023-02-27T12:08:33.270Z,3.80
2023-02-27T12:11:14.189Z,5.65
2023-02-27T12:13:48.366Z,3.60
2023-02-27T12:16:23.354Z,4.03
2023-02-27T12:18:56.523Z,4.05
2023-02-27T12:21:28.294Z,1.73
2023-02-27T12:24:01.383Z,2.83
2023-02-27T12:26:33.844Z,4.03
2023-02-27T12:29:06.107Z,3.38
2023-02-27T12:31:51.374Z,3.10
2023-02-27T12:34:27.216Z,3.08
2023-02-27T12:36:55.315Z,3.23
2023-02-27T12:39:24.915Z,3.20
2023-02-27T12:42:22.243Z,4.53
2023-02-27T12:45:26.620Z,7.82
2023-02-27T12:48:09.904Z,4.70
2023-02-27T12:50:50.518Z,5.15
2023-02-27T12:53:32.572Z,4.10
2023-02-27T12:56:07.167Z,4.93
2023-02-27T12:58:48.852Z,4.32
2023-02-27T13:01:29.317Z,6.18
2023-02-27T13:04:04.684Z,4.80
2023-02-27T13:06:41.868Z,3.80
2023-02-27T13:09:21.151Z,3.05
2023-02-27T13:11:59.758Z,2.45
2023-02-27T13:14:35.012Z,2.20
2023-02-27T13:17:05.879Z,2.67
2023-02-27T13:19:39.955Z,3.63
2023-02-27T13:22:15.964Z,2.03
2023-02-27T13:24:48.224Z,1.60
2023-02-27T13:27:23.494Z,2.58
2023-02-27T13:30:08.662Z,3.97
2023-02-27T13:32:44.616Z,2.00
2023-02-27T13:35:27.947Z,3.20
2023-02-27T13:37:58.419Z,3.67
2023-02-27T13:40:38.740Z,2.80
2023-02-27T13:43:28.818Z,5.05
2023-02-27T13:45:59.011Z,2.40
2023-02-27T13:48:45.149Z,3.63
2023-02-27T13:51:56.520Z,1.90
2023-02-27T13:54:40.292Z,4.65
2023-02-27T13:57:19.469Z,4.38
2023-02-27T13:59:54.751Z,3.65
2023-02-27T14:02:32.675Z,2.10
2023-02-27T14:05:05.354Z,2.58
2023-02-27T14:07:48.122Z,3.22
2023-02-27T14:10:23.658Z,4.20
2023-02-27T14:12:52.970Z,4.03
2023-02-27T14:15:52.550Z,3.08
2023-02-27T14:18:53.470Z,3.78
2023-02-27T14:21:56.858Z,3.80
2023-02-27T14:24:28.926Z,5.78
2023-02-27T14:26:58.909Z,3.92
2023-02-27T14:29:31.316Z,7.55
2023-02-27T14:32:01.505Z,5.13
2023-02-27T14:34:29.980Z,3.83
2023-02-27T14:37:02.052Z,5.10
2023-02-27T14:39:33.526Z,3.75
2023-02-27T14:42:16.592Z,4.45
2023-02-27T14:44:46.997Z,4.38
2023-02-27T14:47:19.480Z,4.75
2023-02-27T14:49:48.632Z,3.58
2023-02-27T14:52:22.055Z,4.28
2023-02-27T14:54:50.827Z,4.38
2023-02-27T14:57:21.859Z,2.97
2023-02-27T14:59:51.655Z,2.58
2023-02-27T15:02:25.981Z,3.03
2023-02-27T15:05:13.578Z,2.15
2023-02-27T15:07:41.918Z,3.78
2023-02-27T15:10:18.036Z,4.40
2023-02-27T15:12:48.487Z,2.95
2023-02-27T15:15:19.415Z,7.13
2023-02-27T15:17:47.390Z,6.93
2023-02-27T15:20:25.463Z,3.83
2023-02-27T15:22:53.215Z,5.47
2023-02-27T15:25:28.929Z,4.32
2023-02-27T15:28:02.609Z,2.33
2023-02-27T15:30:31.092Z,3.95
2023-02-27T15:33:00.136Z,2.17
2023-02-27T15:35:33.216Z,4.05
2023-02-27T15:38:02.389Z,3.05
2023-02-27T15:40:32.341Z,5.63
2023-02-27T15:43:02.206Z,4.60
2023-02-27T15:45:33.956Z,5.05
2023-02-27T15:48:02.007Z,3.60
2023-02-27T15:50:34.031Z,7.22
2023-02-27T15:53:05.649Z,5.35
2023-02-27T15:55:35.916Z,1.70
2023-02-27T15:58:20.308Z,6.18
2023-02-27T16:00:48.286Z,4.22
2023-02-27T16:03:22.300Z,4.35
2023-02-27T16:05:53.062Z,3.47
2023-02-27T16:08:22.135Z,5.63
2023-02-27T16:10:51.584Z,6.55
2023-02-27T16:13:35.053Z,2.92
2023-02-27T16:16:04.736Z,6.07
2023-02-27T16:18:34.788Z,4.38
2023-02-27T16:21:14.771Z,6.90
2023-02-27T16:23:44.992Z,3.38
2023-02-27T16:26:31.764Z,3.17
2023-02-27T16:29:05.998Z,6.18
2023-02-27T16:31:35.845Z,6.03
2023-02-27T16:34:15.649Z,4.22
2023-02-27T16:36:52.999Z,3.35
2023-02-27T16:39:20.738Z,7.53
2023-02-27T16:41:49.375Z,3.55
2023-02-27T16:44:18.466Z,4.70
2023-02-27T16:46:46.199Z,4.80
2023-02-27T16:49:22.256Z,3.92
2023-02-27T16:51:50.334Z,2.67
2023-02-27T16:54:18.673Z,4.15
2023-02-27T16:56:48.896Z,4.32
2023-02-27T16:59:29.226Z,5.20
2023-02-27T17:01:57.512Z,4.75
2023-02-27T17:04:26.369Z,4.78
2023-02-27T17:06:55.468Z,6.03
2023-02-27T17:09:23.259Z,12.20
2023-02-27T17:11:51.093Z,3.90
2023-02-27T17:14:20.198Z,3.30
2023-02-27T17:16:48.284Z,3.75
2023-02-27T17:19:16.891Z,4.15
2023-02-27T17:21:44.605Z,4.53
2023-02-27T17:24:12.354Z,4.32
2023-02-27T17:26:40.108Z,3.20
2023-02-27T17:29:09.542Z,2.97
2023-02-27T17:31:39.021Z,3.53
2023-02-27T17:34:08.883Z,3.72
2023-02-27T17:36:38.570Z,4.30
2023-02-27T17:39:06.355Z,4.88
2023-02-27T17:41:34.835Z,3.40
2023-02-27T17:44:02.722Z,5.10
2023-02-27T17:46:32.070Z,3.85
2023-02-27T17:49:01.700Z,5.47
2023-02-27T17:51:31.159Z,5.65
2023-02-27T17:54:02.161Z,5.47
2023-02-27T17:56:30.308Z,5.75
2023-02-27T17:58:58.596Z,4.60
2023-02-27T18:01:27.709Z,4.65
2023-02-27T18:03:56.086Z,4.90
2023-02-27T18:06:25.974Z,3.85
2023-02-27T18:08:53.902Z,37.33
2023-02-27T18:11:23.038Z,24.02
2023-02-27T18:13:51.492Z,83.05
2023-02-27T18:16:21.917Z,60.83
2023-02-27T18:18:50.116Z,32.13
2023-02-27T18:21:20.975Z,41.08
2023-02-27T18:23:51.344Z,18.90
2023-02-27T18:26:29.353Z,8.65
2023-02-27T18:29:00.178Z,7.03
2023-02-27T18:31:30.626Z,4.95
2023-02-27T18:33:58.500Z,5.65
2023-02-27T18:36:26.706Z,5.82
2023-02-27T18:38:56.034Z,6.95
2023-02-27T18:41:23.902Z,5.97
2023-02-27T18:43:51.888Z,3.97
2023-02-27T18:46:20.119Z,4.75
2023-02-27T18:48:48.027Z,6.55
2023-02-27T18:51:17.289Z,8.80
2023-02-27T18:53:47.627Z,8.40
2023-02-27T18:56:18.883Z,8.48
2023-02-27T18:58:46.952Z,5.03
2023-02-27T19:01:20.905Z,21.27
2023-02-27T19:03:48.782Z,38.45
2023-02-27T19:06:16.940Z,74.72
2023-02-27T19:08:44.760Z,60.10
2023-02-27T19:11:21.319Z,23.10
2023-02-27T19:16:18.078Z,7.43
2023-02-27T19:18:45.909Z,5.60
2023-02-27T19:21:13.582Z,5.63
2023-02-27T19:23:41.321Z,5.38
2023-02-27T19:26:10.107Z,7.00
2023-02-27T19:28:37.793Z,7.57
2023-02-27T19:31:12.297Z,5.53
2023-02-27T19:33:40.167Z,8.20
2023-02-27T19:36:09.307Z,6.68
2023-02-27T19:38:37.421Z,5.70
2023-02-27T19:41:07.662Z,8.32
2023-02-27T19:43:35.900Z,8.57
2023-02-27T19:46:05.888Z,9.88
2023-02-27T19:48:35.583Z,7.30
2023-02-27T19:51:03.938Z,5.20
2023-02-27T19:53:32.241Z,10.27
2023-02-27T19:56:00.765Z,11.27
2023-02-27T19:58:28.842Z,10.23
2023-02-27T20:00:56.746Z,7.65
2023-02-27T20:03:24.768Z,8.90
2023-02-27T20:05:53.845Z,10.23
2023-02-27T20:08:21.767Z,8.25
2023-02-27T20:11:00.870Z,8.35
2023-02-27T20:13:29.330Z,6.90
2023-02-27T20:15:58.497Z,7.93
2023-02-27T20:18:27.612Z,5.65
2023-02-27T20:21:04.461Z,7.43
2023-02-27T20:23:33.766Z,9.65
2023-02-27T20:26:01.901Z,9.20
2023-02-27T20:28:29.667Z,9.00
2023-02-27T20:30:57.362Z,15.02
2023-02-27T20:33:25.192Z,11.32
2023-02-27T20:35:52.928Z,14.50
2023-02-27T20:38:22.657Z,10.32
2023-02-27T20:40:51.204Z,10.70
2023-02-27T20:43:18.872Z,10.32
2023-02-27T20:45:46.717Z,7.63
2023-02-27T20:48:14.499Z,7.22
2023-02-27T20:50:42.313Z,7.00
2023-02-27T20:53:10.014Z,7.85
2023-02-27T20:55:41.592Z,9.82
2023-02-27T20:58:09.813Z,11.35
2023-02-27T21:00:37.541Z,10.45
2023-02-27T21:03:05.326Z,8.38
2023-02-27T21:05:33.628Z,9.23
2023-02-27T21:08:01.438Z,8.35
2023-02-27T21:10:29.134Z,9.38
2023-02-27T21:12:58.269Z,10.73
2023-02-27T21:15:26.146Z,12.77
2023-02-27T21:17:53.910Z,9.20
2023-02-27T21:20:21.639Z,8.55
2023-02-27T21:22:49.381Z,9.55
2023-02-27T21:25:17.179Z,9.73
2023-02-27T21:27:44.936Z,13.02
2023-02-27T21:30:14.674Z,9.18
2023-02-27T21:32:42.473Z,9.25
2023-02-27T21:35:10.641Z,6.93
2023-02-27T21:37:38.455Z,9.90
2023-02-27T21:40:07.428Z,14.77
2023-02-27T21:42:35.170Z,10.52
2023-02-27T21:45:02.881Z,9.32
2023-02-27T21:47:31.982Z,12.38
2023-02-27T21:49:59.671Z,8.35
2023-02-27T21:52:27.505Z,10.95
2023-02-27T21:54:56.299Z,8.75
2023-02-27T21:57:24.046Z,10.25
2023-02-27T21:59:51.763Z,11.35
2023-02-27T22:02:19.596Z,8.90
2023-02-27T22:04:48.782Z,8.60
2023-02-27T22:07:16.442Z,11.27
2023-02-27T22:09:44.213Z,14.18
2023-02-27T22:12:11.911Z,9.77
2023-02-27T22:14:39.672Z,9.90
2023-02-27T22:17:07.385Z,13.00
2023-02-27T22:19:35.100Z,10.73
2023-02-27T22:22:04.181Z,12.20
2023-02-27T22:24:32.265Z,14.23
2023-02-27T22:26:59.982Z,15.43
2023-02-27T22:29:27.751Z,14.73
2023-02-27T22:31:55.567Z,14.65
2023-02-27T22:34:23.325Z,12.40
2023-02-27T22:36:52.580Z,17.17
2023-02-27T22:39:22.517Z,16.73
2023-02-27T22:41:50.290Z,25.65
2023-02-27T22:44:18.251Z,16.50
2023-02-27T22:46:47.845Z,14.90
2023-02-27T22:49:18.395Z,12.82
2023-02-27T22:51:50.737Z,13.57
2023-02-27T22:54:22.152Z,13.70
2023-02-27T22:56:51.758Z,7.55
2023-02-27T22:59:19.514Z,8.60
2023-02-27T23:01:48.475Z,10.30
2023-02-27T23:04:17.221Z,14.63
2023-02-27T23:06:46.499Z,13.43
2023-02-27T23:09:15.918Z,11.63
2023-02-27T23:11:44.994Z,10.38
2023-02-27T23:14:13.528Z,21.10
2023-02-27T23:16:45.387Z,12.63
2023-02-27T23:19:14.730Z,11.80
2023-02-27T23:21:42.854Z,14.20
2023-02-27T23:24:12.471Z,14.43
2023-02-27T23:26:42.623Z,11.77
2023-02-27T23:29:12.402Z,19.73
2023-02-27T23:31:40.746Z,14.45
2023-02-27T23:34:08.863Z,15.52
2023-02-27T23:36:37.361Z,15.93
2023-02-27T23:39:07.073Z,14.68
2023-02-27T23:41:35.276Z,13.13
2023-02-27T23:44:03.446Z,15.35
2023-02-27T23:46:32.686Z,11.40
2023-02-27T23:49:00.882Z,13.57
2023-02-27T23:51:30.567Z,8.93
2023-02-27T23:53:58.728Z,21.27
2023-02-27T23:56:28.208Z,10.27
2023-02-27T23:58:58.180Z,10.32
